Time,TemperatureF,DewpointF,PressureIn,WindDirection,WindDirectionDegrees,WindSpeedMPH,WindSpeedGustMPH,Humidity,HourlyPrecipIn,Conditions,Clouds,dailyrainin,SoftwareType,DateUTC
2013-03-23 00:12:00,54.5,54.0,29.78,ENE,60,5.0,10.0,98,0.00,,,0.00,weatherlink.com 1.10,2013-03-22 23:12:00,
2013-03-23 00:27:00,54.7,54.0,29.77,NE,53,4.0,6.0,98,0.00,,,0.00,weatherlink.com 1.10,2013-03-22 23:27:00,
2013-03-23 00:42:00,54.9,54.0,29.77,NE,47,5.0,7.0,98,0.00,,,0.00,weatherlink.com 1.10,2013-03-22 23:42:00,
2013-03-23 00:57:00,54.9,54.0,29.77,NE,53,5.0,8.0,98,0.00,,,0.00,weatherlink.com 1.10,2013-03-22 23:57:00,
2013-03-23 01:12:00,54.7,54.0,29.77,ENE,68,5.0,8.0,98,0.00,,,0.00,weatherlink.com 1.10,2013-03-23 00:12:00,
2013-03-23 01:27:00,54.4,54.0,29.76,NE,40,9.0,9.0,98,0.00,,,0.00,weatherlink.com 1.10,2013-03-23 00:27:00,
2013-03-23 01:42:00,54.2,54.0,29.76,NE,39,6.0,9.0,98,0.00,,,0.00,weatherlink.com 1.10,2013-03-23 00:42:00,
2013-03-23 01:57:00,53.9,53.0,29.76,NE,36,10.0,11.0,98,0.00,,,0.00,weatherlink.com 1.10,2013-03-23 00:57:00,
2013-03-23 02:12:00,53.7,53.0,29.76,NE,42,9.0,10.0,98,0.00,,,0.00,weatherlink.com 1.10,2013-03-23 01:12:00,
2013-03-23 02:27:00,53.6,53.0,29.75,NE,45,2.0,8.0,98,0.00,,,0.00,weatherlink.com 1.10,2013-03-23 01:27:00,
2013-03-23 02:42:00,53.4,53.0,29.75,NNE,32,3.0,5.0,98,0.00,,,0.00,weatherlink.com 1.10,2013-03-23 01:42:00,
2013-03-23 02:57:00,53.1,53.0,29.75,ENE,66,6.0,7.0,98,0.00,,,0.00,weatherlink.com 1.10,2013-03-23 01:57:00,
2013-03-23 03:12:00,53.2,53.0,29.74,NE,47,4.0,8.0,99,0.00,,,0.00,weatherlink.com 1.10,2013-03-23 02:12:00,
2013-03-23 03:27:00,53.2,53.0,29.73,North,360,2.0,5.0,99,0.00,,,0.00,weatherlink.com 1.10,2013-03-23 02:27:00,
2013-03-23 03:42:00,53.2,53.0,29.73,NE,43,2.0,3.0,99,0.00,,,0.00,weatherlink.com 1.10,2013-03-23 02:42:00,
2013-03-23 03:57:00,53.3,53.0,29.72,NE,34,3.0,5.0,99,0.00,,,0.00,weatherlink.com 1.10,2013-03-23 02:57:00,
2013-03-23 04:13:00,53.5,53.0,29.73,NE,37,8.0,11.0,99,0.00,,,0.00,weatherlink.com 1.10,2013-03-23 03:13:00,
2013-03-23 04:28:00,53.6,53.0,29.72,NE,44,4.0,8.0,99,0.00,,,0.00,weatherlink.com 1.10,2013-03-23 03:28:00,
2013-03-23 04:43:00,53.6,53.0,29.71,NE,39,5.0,7.0,99,0.00,,,0.00,weatherlink.com 1.10,2013-03-23 03:43:00,
2013-03-23 04:58:00,53.7,54.0,29.71,ENE,69,3.0,7.0,99,0.00,,,0.00,weatherlink.com 1.10,2013-03-23 03:58:00,
2013-03-23 05:13:00,53.7,54.0,29.73,NE,50,2.0,6.0,99,0.00,,,0.00,weatherlink.com 1.10,2013-03-23 04:13:00,
2013-03-23 05:28:00,54.0,54.0,29.72,NNE,30,5.0,7.0,99,0.00,,,0.00,weatherlink.com 1.10,2013-03-23 04:28:00,
2013-03-23 05:43:00,54.1,54.0,29.73,ENE,58,2.0,8.0,99,0.00,,,0.00,weatherlink.com 1.10,2013-03-23 04:43:00,
2013-03-23 05:58:00,54.3,54.0,29.73,NNE,13,6.0,10.0,99,0.00,,,0.00,weatherlink.com 1.10,2013-03-23 04:58:00,
2013-03-23 06:13:00,54.5,54.0,29.73,NNE,32,4.0,6.0,99,0.00,,,0.00,weatherlink.com 1.10,2013-03-23 05:13:00,
2013-03-23 06:28:00,54.4,54.0,29.73,NNW,339,1.0,4.0,99,0.00,,,0.00,weatherlink.com 1.10,2013-03-23 05:28:00,
2013-03-23 06:43:00,54.3,54.0,29.73,NNW,341,2.0,3.0,99,0.00,,,0.00,weatherlink.com 1.10,2013-03-23 05:43:00,
2013-03-23 06:58:00,54.3,54.0,29.73,NNW,333,2.0,4.0,99,0.00,,,0.00,weatherlink.com 1.10,2013-03-23 05:58:00,
2013-03-23 07:13:00,54.2,54.0,29.72,NNW,343,4.0,6.0,99,0.00,,,0.00,weatherlink.com 1.10,2013-03-23 06:13:00,
2013-03-23 07:28:00,54.2,54.0,29.72,NNE,23,2.0,5.0,99,0.00,,,0.00,weatherlink.com 1.10,2013-03-23 06:28:00,
2013-03-23 07:43:00,54.3,54.0,29.72,NW,321,4.0,6.0,98,0.00,,,0.00,weatherlink.com 1.10,2013-03-23 06:43:00,
2013-03-23 07:58:00,54.5,54.0,29.71,WNW,284,2.0,4.0,98,0.00,,,0.00,weatherlink.com 1.10,2013-03-23 06:58:00,
2013-03-23 08:13:00,54.7,54.0,29.72,North,352,1.0,3.0,98,0.00,,,0.00,weatherlink.com 1.10,2013-03-23 07:13:00,
2013-03-23 08:28:00,54.9,54.0,29.73,NE,37,3.0,5.0,97,0.00,,,0.00,weatherlink.com 1.10,2013-03-23 07:28:00,
2013-03-23 08:43:00,55.4,54.0,29.73,NNE,30,3.0,6.0,96,0.00,,,0.00,weatherlink.com 1.10,2013-03-23 07:43:00,
2013-03-23 08:58:00,55.5,54.0,29.73,East,94,1.0,7.0,95,0.00,,,0.00,weatherlink.com 1.10,2013-03-23 07:58:00,
2013-03-23 09:13:00,55.7,54.0,29.73,North,10,3.0,4.0,95,0.00,,,0.00,weatherlink.com 1.10,2013-03-23 08:13:00,
2013-03-23 09:28:00,55.7,54.0,29.73,NNE,32,3.0,6.0,94,0.00,,,0.00,weatherlink.com 1.10,2013-03-23 08:28:00,
2013-03-23 09:43:00,55.8,54.0,29.73,NE,41,5.0,8.0,93,0.00,,,0.00,weatherlink.com 1.10,2013-03-23 08:43:00,
2013-03-23 09:58:00,56.1,54.0,29.72,NNE,26,5.0,8.0,91,0.00,,,0.00,weatherlink.com 1.10,2013-03-23 08:58:00,
2013-03-23 10:13:00,57.0,54.0,29.72,North,356,2.0,8.0,90,0.00,,,0.00,weatherlink.com 1.10,2013-03-23 09:13:00,
2013-03-23 10:28:00,57.5,53.0,29.72,NE,47,13.0,13.0,84,0.00,,,0.00,weatherlink.com 1.10,2013-03-23 09:28:00,
2013-03-23 10:43:00,58.5,53.0,29.72,NNE,29,4.0,10.0,82,0.00,,,0.00,weatherlink.com 1.10,2013-03-23 09:43:00,
2013-03-23 10:58:00,59.2,54.0,29.72,NNE,28,6.0,11.0,82,0.00,,,0.00,weatherlink.com 1.10,2013-03-23 09:58:00,
2013-03-23 11:13:00,60.0,52.0,29.72,NNE,29,11.0,16.0,75,0.00,,,0.00,weatherlink.com 1.10,2013-03-23 10:13:00,
2013-03-23 11:29:00,61.1,51.0,29.71,NE,39,11.0,15.0,70,0.00,,,0.00,weatherlink.com 1.10,2013-03-23 10:29:00,
2013-03-23 11:44:00,62.4,50.0,29.71,East,96,8.0,14.0,65,0.00,,,0.00,weatherlink.com 1.10,2013-03-23 10:44:00,
2013-03-23 11:59:00,62.6,50.0,29.70,ENE,60,12.0,19.0,64,0.00,,,0.00,weatherlink.com 1.10,2013-03-23 10:59:00,
2013-03-23 12:14:00,62.7,51.0,29.70,East,92,9.0,19.0,65,0.00,,,0.00,weatherlink.com 1.10,2013-03-23 11:14:00,
2013-03-23 12:29:00,63.0,50.0,29.70,NE,34,9.0,18.0,63,0.00,,,0.00,weatherlink.com 1.10,2013-03-23 11:29:00,
2013-03-23 12:44:00,63.5,51.0,29.69,NE,49,11.0,17.0,63,0.00,,,0.00,weatherlink.com 1.10,2013-03-23 11:44:00,
2013-03-23 12:59:00,63.2,49.0,29.69,NE,37,10.0,15.0,60,0.00,,,0.00,weatherlink.com 1.10,2013-03-23 11:59:00,
2013-03-23 13:14:00,63.7,49.0,29.69,East,79,14.0,17.0,60,0.00,,,0.00,weatherlink.com 1.10,2013-03-23 12:14:00,
2013-03-23 13:29:00,64.0,49.0,29.68,NNE,33,12.0,17.0,59,0.00,,,0.00,weatherlink.com 1.10,2013-03-23 12:29:00,
2013-03-23 13:44:00,63.5,49.0,29.68,NE,49,13.0,16.0,59,0.00,,,0.00,weatherlink.com 1.10,2013-03-23 12:44:00,
2013-03-23 13:59:00,63.8,50.0,29.67,ENE,70,13.0,13.0,61,0.00,,,0.00,weatherlink.com 1.10,2013-03-23 12:59:00,
2013-03-23 14:14:00,63.7,48.0,29.66,NE,44,9.0,20.0,58,0.00,,,0.00,weatherlink.com 1.10,2013-03-23 13:14:00,
2013-03-23 14:29:00,63.7,49.0,29.66,NE,39,10.0,16.0,59,0.00,,,0.00,weatherlink.com 1.10,2013-03-23 13:29:00,
2013-03-23 14:44:00,63.6,49.0,29.66,ENE,63,10.0,15.0,60,0.00,,,0.00,weatherlink.com 1.10,2013-03-23 13:44:00,
2013-03-23 14:59:00,63.7,49.0,29.65,NE,37,8.0,12.0,60,0.00,,,0.00,weatherlink.com 1.10,2013-03-23 13:59:00,
2013-03-23 15:14:00,63.3,50.0,29.65,NE,41,9.0,13.0,63,0.00,,,0.00,weatherlink.com 1.10,2013-03-23 14:14:00,
2013-03-23 15:29:00,63.2,50.0,29.65,NNE,30,8.0,14.0,63,0.00,,,0.00,weatherlink.com 1.10,2013-03-23 14:29:00,
2013-03-23 15:44:00,62.8,51.0,29.65,NE,50,4.0,12.0,65,0.00,,,0.00,weatherlink.com 1.10,2013-03-23 14:44:00,
2013-03-23 15:59:00,62.6,51.0,29.64,NE,53,5.0,11.0,67,0.00,,,0.00,weatherlink.com 1.10,2013-03-23 14:59:00,
2013-03-23 16:14:00,62.3,52.0,29.64,ENE,60,7.0,9.0,68,0.00,,,0.00,weatherlink.com 1.10,2013-03-23 15:14:00,
2013-03-23 16:29:00,62.2,51.0,29.64,NNE,25,8.0,9.0,68,0.00,,,0.00,weatherlink.com 1.10,2013-03-23 15:29:00,
2013-03-23 16:44:00,61.9,52.0,29.64,NE,47,4.0,9.0,71,0.00,,,0.00,weatherlink.com 1.10,2013-03-23 15:44:00,
2013-03-23 16:59:00,61.7,53.0,29.63,NE,36,4.0,7.0,72,0.00,,,0.00,weatherlink.com 1.10,2013-03-23 15:59:00,
2013-03-23 17:14:00,61.4,53.0,29.63,NNE,26,2.0,6.0,73,0.00,,,0.00,weatherlink.com 1.10,2013-03-23 16:14:00,
2013-03-23 17:29:00,61.3,53.0,29.63,NNW,343,3.0,4.0,73,0.00,,,0.00,weatherlink.com 1.10,2013-03-23 16:29:00,
2013-03-23 17:44:00,61.2,53.0,29.62,NNW,335,3.0,5.0,74,0.00,,,0.00,weatherlink.com 1.10,2013-03-23 16:44:00,
2013-03-23 17:59:00,60.9,53.0,29.62,NE,36,3.0,4.0,74,0.00,,,0.00,weatherlink.com 1.10,2013-03-23 16:59:00,
2013-03-23 18:14:00,60.5,53.0,29.62,NE,38,2.0,3.0,75,0.00,,,0.00,weatherlink.com 1.10,2013-03-23 17:14:00,
2013-03-23 18:29:00,60.3,53.0,29.62,NNE,27,2.0,4.0,77,0.00,,,0.00,weatherlink.com 1.10,2013-03-23 17:29:00,
2013-03-23 18:44:00,59.8,53.0,29.62,NNE,28,1.0,3.0,79,0.00,,,0.00,weatherlink.com 1.10,2013-03-23 17:44:00,
2013-03-23 18:59:00,59.2,53.0,29.62,NE,46,3.0,4.0,81,0.00,,,0.00,weatherlink.com 1.10,2013-03-23 17:59:00,
2013-03-23 19:14:00,58.8,54.0,29.61,NNE,23,2.0,3.0,83,0.00,,,0.00,weatherlink.com 1.10,2013-03-23 18:14:00,
2013-03-23 19:29:00,58.4,54.0,29.61,ENE,59,3.0,4.0,84,0.00,,,0.00,weatherlink.com 1.10,2013-03-23 18:29:00,
2013-03-23 19:45:00,58.0,54.0,29.62,NE,41,1.0,2.0,85,0.00,,,0.00,weatherlink.com 1.10,2013-03-23 18:45:00,
2013-03-23 20:00:00,57.6,54.0,29.63,NNE,16,1.0,3.0,86,0.00,,,0.00,weatherlink.com 1.10,2013-03-23 19:00:00,
2013-03-23 20:15:00,57.3,54.0,29.63,ESE,115,0.0,2.0,87,0.00,,,0.00,weatherlink.com 1.10,2013-03-23 19:15:00,
2013-03-23 20:30:00,57.2,53.0,29.65,NE,44,4.0,6.0,87,0.00,,,0.00,weatherlink.com 1.10,2013-03-23 19:30:00,
2013-03-23 20:45:00,57.0,54.0,29.65,NNW,345,4.0,9.0,88,0.00,,,0.00,weatherlink.com 1.10,2013-03-23 19:45:00,
2013-03-23 21:00:00,56.7,53.0,29.65,North,356,4.0,12.0,88,0.00,,,0.00,weatherlink.com 1.10,2013-03-23 20:00:00,
2013-03-23 21:15:00,56.4,53.0,29.65,WNW,297,2.0,5.0,88,0.00,,,0.00,weatherlink.com 1.10,2013-03-23 20:15:00,
2013-03-23 21:30:00,56.4,53.0,29.65,NW,305,4.0,5.0,88,0.00,,,0.00,weatherlink.com 1.10,2013-03-23 20:30:00,
2013-03-23 21:45:00,56.3,53.0,29.66,NNE,23,3.0,7.0,89,0.00,,,0.00,weatherlink.com 1.10,2013-03-23 20:45:00,
2013-03-23 22:00:00,55.7,53.0,29.66,North,8,4.0,10.0,90,0.00,,,0.00,weatherlink.com 1.10,2013-03-23 21:00:00,
2013-03-23 22:15:00,55.1,53.0,29.66,North,10,2.0,5.0,91,0.00,,,0.00,weatherlink.com 1.10,2013-03-23 21:15:00,
2013-03-23 22:30:00,54.9,52.0,29.66,NNE,24,0.0,2.0,91,0.00,,,0.00,weatherlink.com 1.10,2013-03-23 21:30:00,
2013-03-23 22:45:00,54.5,52.0,29.65,SSW,201,0.0,2.0,91,0.02,,,0.02,weatherlink.com 1.10,2013-03-23 21:45:00,
2013-03-23 23:00:00,54.5,52.0,29.64,NNW,330,0.0,1.0,92,0.02,,,0.02,weatherlink.com 1.10,2013-03-23 22:00:00,
2013-03-23 23:15:00,54.5,53.0,29.64,ENE,77,0.0,1.0,93,0.02,,,0.02,weatherlink.com 1.10,2013-03-23 22:15:00,
2013-03-23 23:30:00,54.0,52.0,29.63,SSW,195,1.0,3.0,93,0.02,,,0.02,weatherlink.com 1.10,2013-03-23 22:30:00,
2013-03-23 23:45:00,54.1,53.0,29.62,ESE,107,0.0,2.0,94,0.00,,,0.02,weatherlink.com 1.10,2013-03-23 22:45:00,